WC StCyr

Date de la prise de vue : 26/05/2022 12:27:56
Et voilĂ  le METAR et le TAF :
2022/05/26 10:00 LFPN 261000Z AUTO 26005KT 230V300 9999 SCT022 BKN028 OVC035 17/11 Q1027 NOSIG
2022/05/26 09:44 TAF LFPN 260800Z 2609/2618 27008KT 9999 BKN020 PROB30 TEMPO 2609/2610 4000 -RADZ BKN014